Time;durP1;ratioP1;P1;durP2;ratioP2;P2;SDS_P1;SDS_P2;PMS_P1;PMS_P2;Temp;Humidity;BMP_temperature;BMP_pressure;BME280_temperature;BME280_humidity;BME280_pressure;Samples;Min_cycle;Max_cycle;Signal;HPM_P1;HPM_P2
2023/09/02 00:01:23;;;;;;;743.90;568.47;;;;;;;;;;5026558;28;20133;-61
2023/09/02 00:03:50;;;;;;;683.75;533.38;;;;;;;;;;5029155;28;20080;-62
2023/09/02 00:06:17;;;;;;;692.45;548.28;;;;;;;;;;5011790;28;20041;-58
2023/09/02 00:08:43;;;;;;;687.50;547.10;;;;;;;;;;5007495;28;20091;-62
2023/09/02 00:11:10;;;;;;;680.50;552.25;;;;;;;;;;5027271;28;20438;-64
2023/09/02 00:13:38;;;;;;;696.35;546.47;;;;;;;;;;5025937;28;20037;-61
2023/09/02 00:16:05;;;;;;;701.58;550.13;;;;;;;;;;5028167;28;20160;-62
2023/09/02 00:18:31;;;;;;;695.40;550.33;;;;;;;;;;5011900;28;20053;-62
2023/09/02 00:20:58;;;;;;;695.78;557.25;;;;;;;;;;5026782;28;20041;-63
2023/09/02 00:23:25;;;;;;;713.10;568.05;;;;;;;;;;5025449;28;20061;-63
2023/09/02 00:25:51;;;;;;;683.92;551.63;;;;;;;;;;5025604;28;20048;-61
2023/09/02 00:28:18;;;;;;;743.15;563.08;;;;;;;;;;5027928;28;20049;-60
2023/09/02 00:30:45;;;;;;;695.30;559.45;;;;;;;;;;5043801;28;20487;-62
2023/09/02 00:33:11;;;;;;;703.13;567.63;;;;;;;;;;5026511;28;20124;-61
2023/09/02 00:35:38;;;;;;;680.42;565.40;;;;;;;;;;5024920;28;20060;-61
2023/09/02 00:38:04;;;;;;;718.38;572.35;;;;;;;;;;5025684;28;20501;-62
2023/09/02 00:40:31;;;;;;;692.78;569.40;;;;;;;;;;5025481;28;20077;-60
2023/09/02 00:42:58;;;;;;;704.00;563.63;;;;;;;;;;5030335;28;20045;-62
2023/09/02 00:45:25;;;;;;;699.72;566.03;;;;;;;;;;5023839;28;20603;-61
2023/09/02 00:47:53;;;;;;;711.70;573.35;;;;;;;;;;5007352;28;20049;-54
2023/09/02 00:50:20;;;;;;;686.72;570.72;;;;;;;;;;5011457;28;20057;-62
2023/09/02 00:52:47;;;;;;;708.75;563.83;;;;;;;;;;5027062;28;20391;-60
2023/09/02 00:55:14;;;;;;;728.60;573.80;;;;;;;;;;5008331;28;20141;-61
2023/09/02 00:57:41;;;;;;;690.42;562.33;;;;;;;;;;5026578;28;20037;-58
2023/09/02 01:00:09;;;;;;;684.47;558.90;;;;;;;;;;5010682;28;20045;-61
2023/09/02 01:02:38;;;;;;;689.78;566.42;;;;;;;;;;5001270;28;20053;-63
2023/09/02 01:05:06;;;;;;;688.33;572.95;;;;;;;;;;5008915;28;20064;-61
2023/09/02 01:07:33;;;;;;;714.50;576.95;;;;;;;;;;5005435;28;20562;-66
2023/09/02 01:10:00;;;;;;;695.47;570.03;;;;;;;;;;5029450;28;20549;-61
2023/09/02 01:12:26;;;;;;;688.15;564.00;;;;;;;;;;5027118;28;20104;-62
2023/09/02 01:14:53;;;;;;;702.28;558.42;;;;;;;;;;5018305;28;20388;-58
2023/09/02 01:17:19;;;;;;;691.35;563.60;;;;;;;;;;5026689;28;20051;-60
2023/09/02 01:19:47;;;;;;;707.80;565.70;;;;;;;;;;5024974;28;20056;-62
2023/09/02 01:22:16;;;;;;;721.78;570.47;;;;;;;;;;5028374;28;20054;-63
2023/09/02 01:25:22;;;;;;;805.95;676.75;;;;;;;;;;5043749;28;20072;-64
2023/09/02 01:28:07;;;;;;;701.00;566.03;;;;;;;;;;4999044;28;20054;-62
2023/09/02 01:30:36;;;;;;;697.58;561.38;;;;;;;;;;5004959;28;20073;-62
2023/09/02 01:33:05;;;;;;;693.78;576.63;;;;;;;;;;4978440;28;20129;-59
2023/09/02 01:35:35;;;;;;;675.83;562.83;;;;;;;;;;5005679;28;20061;-62
2023/09/02 01:38:03;;;;;;;720.55;579.53;;;;;;;;;;5000464;28;20041;-61
2023/09/02 01:40:32;;;;;;;726.53;571.95;;;;;;;;;;4994622;28;20240;-61
2023/09/02 01:42:59;;;;;;;706.38;562.55;;;;;;;;;;5001568;28;20179;-62
2023/09/02 01:45:33;;;;;;;687.60;567.00;;;;;;;;;;5004479;28;20133;-61
2023/09/02 01:48:00;;;;;;;694.92;568.92;;;;;;;;;;4987646;28;20712;-56
2023/09/02 01:50:28;;;;;;;725.00;580.83;;;;;;;;;;4983976;28;20048;-62
2023/09/02 01:52:55;;;;;;;717.28;584.42;;;;;;;;;;4984289;28;20557;-62
2023/09/02 01:55:23;;;;;;;737.10;584.78;;;;;;;;;;4996428;28;20045;-62
2023/09/02 01:57:50;;;;;;;690.03;568.65;;;;;;;;;;5002589;28;20049;-62
2023/09/02 02:03:35;;;;;;;744.20;567.67;;;;;;;;;;5028825;22;20065;-60
2023/09/02 02:06:05;;;;;;;674.72;551.17;;;;;;;;;;5005169;28;20071;-60
2023/09/02 02:08:37;;;;;;;706.55;562.75;;;;;;;;;;4990779;28;20049;-60
2023/09/02 02:11:04;;;;;;;704.53;561.00;;;;;;;;;;5007101;28;20054;-60
2023/09/02 02:13:31;;;;;;;699.15;557.00;;;;;;;;;;5000255;28;20516;-61
2023/09/02 02:15:58;;;;;;;692.50;547.90;;;;;;;;;;4992307;28;20108;-60
2023/09/02 02:18:24;;;;;;;669.97;541.25;;;;;;;;;;4990563;28;20069;-60
2023/09/02 02:20:58;;;;;;;718.95;565.47;;;;;;;;;;5008742;28;20536;-61
2023/09/02 02:23:25;;;;;;;697.97;549.97;;;;;;;;;;4996574;28;20385;-60
2023/09/02 02:25:51;;;;;;;674.72;537.67;;;;;;;;;;5008801;28;20069;-61
2023/09/02 02:28:19;;;;;;;717.28;555.35;;;;;;;;;;4991148;28;20046;-60
2023/09/02 02:30:46;;;;;;;693.28;546.70;;;;;;;;;;4984875;28;20054;-59
2023/09/02 02:33:12;;;;;;;690.00;545.88;;;;;;;;;;4990125;28;20451;-61
2023/09/02 02:35:39;;;;;;;674.35;542.00;;;;;;;;;;5008744;28;20034;-60
2023/09/02 02:38:06;;;;;;;684.17;549.53;;;;;;;;;;4987795;28;20724;-60
2023/09/02 02:40:32;;;;;;;679.40;536.42;;;;;;;;;;5007748;28;20355;-60
2023/09/02 02:42:59;;;;;;;707.13;537.72;;;;;;;;;;5009155;28;20050;-61
2023/09/02 02:45:26;;;;;;;688.17;536.65;;;;;;;;;;5008381;28;20041;-59
2023/09/02 02:47:52;;;;;;;689.05;539.15;;;;;;;;;;4990062;28;20073;-59
2023/09/02 02:50:19;;;;;;;683.95;532.22;;;;;;;;;;5009575;28;20046;-60
2023/09/02 02:52:46;;;;;;;721.28;547.10;;;;;;;;;;4985519;28;20056;-60
2023/09/02 02:55:12;;;;;;;693.80;539.17;;;;;;;;;;5012359;28;20562;-61
2023/09/02 02:57:39;;;;;;;683.53;541.45;;;;;;;;;;4978684;28;20124;-60
2023/09/02 03:00:08;;;;;;;687.50;539.78;;;;;;;;;;4994048;28;20045;-61
2023/09/02 03:02:35;;;;;;;699.88;540.05;;;;;;;;;;5013392;28;20557;-60
2023/09/02 03:05:02;;;;;;;691.90;543.38;;;;;;;;;;5013695;28;20042;-61
2023/09/02 03:07:29;;;;;;;726.50;538.42;;;;;;;;;;5031702;28;20115;-59
2023/09/02 03:09:55;;;;;;;685.20;526.35;;;;;;;;;;5014494;28;20136;-60
2023/09/02 03:12:22;;;;;;;707.65;532.78;;;;;;;;;;5031569;28;20064;-60
2023/09/02 03:14:48;;;;;;;717.22;543.70;;;;;;;;;;5012882;28;20069;-60
2023/09/02 03:17:20;;;;;;;687.35;513.22;;;;;;;;;;5012891;28;20056;-59
2023/09/02 03:19:48;;;;;;;703.88;525.25;;;;;;;;;;4997280;28;20037;-60
2023/09/02 03:22:15;;;;;;;696.33;525.53;;;;;;;;;;5013745;28;20503;-60
2023/09/02 03:24:44;;;;;;;711.17;530.30;;;;;;;;;;5012986;28;20084;-61
2023/09/02 03:27:11;;;;;;;691.00;515.70;;;;;;;;;;5013177;28;20100;-60
2023/09/02 03:29:37;;;;;;;674.03;504.77;;;;;;;;;;5013463;28;20057;-60
2023/09/02 03:32:04;;;;;;;691.25;514.17;;;;;;;;;;5021431;28;20483;-60
2023/09/02 03:34:30;;;;;;;724.40;518.78;;;;;;;;;;5021621;28;20045;-60
2023/09/02 03:36:57;;;;;;;697.90;511.58;;;;;;;;;;5031708;28;20041;-60
2023/09/02 03:39:23;;;;;;;683.60;502.02;;;;;;;;;;5030336;28;20060;-61
2023/09/02 03:41:50;;;;;;;686.17;506.38;;;;;;;;;;5030477;28;20052;-60
2023/09/02 03:44:16;;;;;;;712.45;511.15;;;;;;;;;;5027506;28;20045;-61
2023/09/02 03:46:43;;;;;;;697.80;502.40;;;;;;;;;;5012390;28;20051;-61
2023/09/02 03:49:10;;;;;;;690.83;494.23;;;;;;;;;;5013887;28;20084;-60
2023/09/02 03:51:38;;;;;;;672.75;502.10;;;;;;;;;;5008512;28;20044;-60
2023/09/02 03:54:06;;;;;;;680.47;509.40;;;;;;;;;;5011307;28;20049;-60
2023/09/02 03:56:36;;;;;;;681.38;476.73;;;;;;;;;;5012085;28;20053;-61
2023/09/02 03:59:04;;;;;;;686.25;492.65;;;;;;;;;;5012204;28;20046;-60
2023/09/02 04:01:31;;;;;;;692.75;486.30;;;;;;;;;;5011265;28;20623;-59
2023/09/02 04:03:59;;;;;;;693.72;497.02;;;;;;;;;;5002592;28;20054;-59
2023/09/02 04:06:26;;;;;;;699.95;493.23;;;;;;;;;;5012122;28;20041;-59
2023/09/02 04:08:53;;;;;;;686.97;499.27;;;;;;;;;;5030669;28;20128;-59
2023/09/02 04:11:19;;;;;;;695.55;489.60;;;;;;;;;;5030295;28;20041;-60
2023/09/02 04:13:46;;;;;;;683.45;490.70;;;;;;;;;;5012168;28;20057;-60
2023/09/02 04:16:13;;;;;;;728.60;506.58;;;;;;;;;;5012328;28;20116;-60
2023/09/02 04:18:41;;;;;;;679.83;493.35;;;;;;;;;;5026036;28;20052;-60
2023/09/02 04:21:10;;;;;;;705.05;494.80;;;;;;;;;;5009829;28;20490;-60
2023/09/02 04:23:41;;;;;;;672.42;489.33;;;;;;;;;;5005448;28;20099;-60
2023/09/02 04:26:11;;;;;;;682.33;484.27;;;;;;;;;;5011969;28;20119;-59
2023/09/02 04:28:38;;;;;;;696.80;494.45;;;;;;;;;;5020995;28;20057;-60
2023/09/02 04:31:05;;;;;;;691.33;500.45;;;;;;;;;;5012106;28;20073;-60
2023/09/02 04:33:33;;;;;;;688.65;505.00;;;;;;;;;;5011540;28;20726;-59
2023/09/02 04:36:02;;;;;;;684.72;506.42;;;;;;;;;;5018919;28;20534;-60
2023/09/02 04:38:32;;;;;;;704.83;516.90;;;;;;;;;;5011757;28;20050;-62
2023/09/02 04:41:04;;;;;;;708.15;507.40;;;;;;;;;;5029059;28;20069;-60
2023/09/02 04:43:30;;;;;;;718.03;521.33;;;;;;;;;;5028496;28;20049;-60
2023/09/02 04:46:00;;;;;;;686.58;515.33;;;;;;;;;;5012806;28;20056;-60
2023/09/02 04:48:27;;;;;;;694.30;525.20;;;;;;;;;;5029555;28;20048;-59
2023/09/02 04:50:54;;;;;;;701.53;519.88;;;;;;;;;;5029557;28;20120;-60
2023/09/02 04:53:23;;;;;;;701.33;522.55;;;;;;;;;;5026328;28;20056;-60
2023/09/02 04:55:50;;;;;;;704.13;544.83;;;;;;;;;;5011720;28;20041;-60
2023/09/02 04:58:20;;;;;;;710.55;550.60;;;;;;;;;;5011824;28;20045;-59
2023/09/02 05:00:47;;;;;;;714.72;576.17;;;;;;;;;;5029966;28;20424;-59
2023/09/02 05:03:13;;;;;;;732.80;603.92;;;;;;;;;;5028405;28;20111;-60
2023/09/02 05:05:40;;;;;;;700.13;617.67;;;;;;;;;;5011317;28;20056;-60
2023/09/02 05:08:10;;;;;;;732.88;653.03;;;;;;;;;;5027872;28;20439;-60
2023/09/02 05:10:37;;;;;;;761.50;679.88;;;;;;;;;;5019165;28;20045;-60
2023/09/02 05:13:04;;;;;;;789.40;706.78;;;;;;;;;;5029397;28;20042;-60
2023/09/02 05:15:32;;;;;;;800.03;717.08;;;;;;;;;;5010893;28;20740;-60
2023/09/02 05:17:59;;;;;;;786.95;705.40;;;;;;;;;;5018210;28;20057;-59
2023/09/02 05:20:27;;;;;;;793.42;710.35;;;;;;;;;;5005512;28;20046;-60
2023/09/02 05:22:54;;;;;;;778.67;693.33;;;;;;;;;;5011015;28;20053;-59
2023/09/02 05:25:21;;;;;;;782.67;684.38;;;;;;;;;;5011045;28;20049;-60
2023/09/02 05:27:48;;;;;;;740.05;659.58;;;;;;;;;;5011916;28;20111;-60
2023/09/02 05:30:15;;;;;;;737.05;657.55;;;;;;;;;;5005119;28;20412;-60
2023/09/02 05:32:42;;;;;;;738.35;657.00;;;;;;;;;;5028020;28;20034;-61
2023/09/02 05:35:08;;;;;;;747.00;665.72;;;;;;;;;;5028497;28;20057;-61
2023/09/02 05:37:35;;;;;;;756.55;674.97;;;;;;;;;;5028624;28;20045;-62
2023/09/02 05:40:03;;;;;;;748.67;668.38;;;;;;;;;;5029395;28;20060;-61
2023/09/02 05:42:29;;;;;;;790.22;708.38;;;;;;;;;;5010934;28;20068;-60
2023/09/02 05:44:56;;;;;;;814.55;730.63;;;;;;;;;;5019808;28;20380;-61
2023/09/02 05:47:22;;;;;;;832.65;747.38;;;;;;;;;;5028252;28;20104;-61
2023/09/02 05:49:49;;;;;;;861.47;775.20;;;;;;;;;;5010305;28;20045;-61
2023/09/02 05:52:15;;;;;;;845.25;760.80;;;;;;;;;;5028559;28;20116;-60
2023/09/02 05:54:42;;;;;;;873.63;786.40;;;;;;;;;;5028217;28;20049;-62
2023/09/02 05:57:08;;;;;;;851.83;768.38;;;;;;;;;;5010363;28;20136;-60
2023/09/02 05:59:35;;;;;;;848.38;763.70;;;;;;;;;;5028539;28;20045;-60
2023/09/02 06:02:02;;;;;;;854.47;768.50;;;;;;;;;;5027864;28;20543;-60
2023/09/02 06:04:29;;;;;;;868.80;781.00;;;;;;;;;;5025066;28;20041;-60
2023/09/02 06:06:55;;;;;;;875.97;790.85;;;;;;;;;;5011262;28;20049;-59
2023/09/02 06:09:26;;;;;;;905.33;818.42;;;;;;;;;;5028167;28;20133;-58
2023/09/02 06:11:53;;;;;;;930.83;843.97;;;;;;;;;;5024989;28;20041;-59
2023/09/02 06:14:19;;;;;;;970.08;879.45;;;;;;;;;;5028341;28;20547;-59
2023/09/02 06:16:46;;;;;;;1011.70;917.42;;;;;;;;;;5028052;28;20124;-59
2023/09/02 06:19:12;;;;;;;1029.15;935.42;;;;;;;;;;5012070;28;20095;-59
2023/09/02 06:21:39;;;;;;;1050.97;958.28;;;;;;;;;;5028781;28;20045;-60
2023/09/02 06:24:06;;;;;;;1072.38;974.75;;;;;;;;;;5028768;28;20467;-60
2023/09/02 06:26:32;;;;;;;1080.35;986.75;;;;;;;;;;5032854;28;20136;-59
2023/09/02 06:28:59;;;;;;;1100.57;998.72;;;;;;;;;;5032220;28;20045;-59
2023/09/02 06:31:25;;;;;;;1138.38;999.90;;;;;;;;;;5031450;28;20091;-59
2023/09/02 06:33:52;;;;;;;1123.82;999.90;;;;;;;;;;5032638;28;20045;-60
2023/09/02 06:36:21;;;;;;;1129.68;999.90;;;;;;;;;;5032558;28;20050;-60
2023/09/02 06:38:47;;;;;;;1127.30;999.90;;;;;;;;;;5031259;28;20052;-59
2023/09/02 06:41:15;;;;;;;1128.78;999.90;;;;;;;;;;5009255;28;20041;-59
2023/09/02 06:43:42;;;;;;;1143.93;999.90;;;;;;;;;;5032274;28;20037;-62
2023/09/02 06:46:14;;;;;;;1153.07;999.90;;;;;;;;;;5032888;28;20041;-61
2023/09/02 06:48:41;;;;;;;1142.97;999.90;;;;;;;;;;5032598;28;20037;-60
2023/09/02 06:51:07;;;;;;;1154.70;999.90;;;;;;;;;;5027923;28;20053;-60
2023/09/02 06:53:34;;;;;;;1159.70;999.90;;;;;;;;;;5031743;28;20041;-59
2023/09/02 06:56:01;;;;;;;1168.40;999.90;;;;;;;;;;5031846;28;20128;-60
2023/09/02 06:58:27;;;;;;;1163.65;999.90;;;;;;;;;;5032394;28;20059;-60
2023/09/02 07:00:54;;;;;;;1166.25;999.90;;;;;;;;;;5032159;28;20112;-60
2023/09/02 07:03:21;;;;;;;1158.55;999.90;;;;;;;;;;5030605;28;20537;-61
2023/09/02 07:05:48;;;;;;;1158.03;999.90;;;;;;;;;;5030959;28;20119;-60
2023/09/02 07:08:15;;;;;;;1163.22;999.90;;;;;;;;;;5013389;28;20064;-61
2023/09/02 07:10:42;;;;;;;1165.45;999.90;;;;;;;;;;5031510;28;20056;-62
2023/09/02 07:13:08;;;;;;;1162.18;999.90;;;;;;;;;;5032062;28;20063;-60
2023/09/02 07:15:35;;;;;;;1173.13;999.90;;;;;;;;;;5030899;28;20097;-60
2023/09/02 07:18:02;;;;;;;1170.43;999.90;;;;;;;;;;5030737;28;20053;-60
2023/09/02 07:20:34;;;;;;;1175.15;999.90;;;;;;;;;;5030892;28;20044;-61
2023/09/02 07:23:00;;;;;;;1179.20;999.90;;;;;;;;;;5030672;28;20096;-60
2023/09/02 07:25:27;;;;;;;1171.60;999.90;;;;;;;;;;5028922;28;20128;-60
2023/09/02 07:27:53;;;;;;;1168.75;999.90;;;;;;;;;;5031631;28;20091;-60
2023/09/02 07:30:20;;;;;;;1167.00;999.90;;;;;;;;;;5031357;28;20056;-60
2023/09/02 07:32:46;;;;;;;1153.18;999.90;;;;;;;;;;5030409;28;20149;-60
2023/09/02 07:35:13;;;;;;;1152.22;999.90;;;;;;;;;;5031058;28;20455;-59
2023/09/02 07:37:39;;;;;;;1149.55;999.90;;;;;;;;;;5029529;28;20124;-60
2023/09/02 07:40:06;;;;;;;1130.55;999.90;;;;;;;;;;5019686;28;20049;-60
2023/09/02 07:42:33;;;;;;;1132.60;999.90;;;;;;;;;;5029694;28;20621;-60
2023/09/02 07:44:59;;;;;;;1139.97;999.90;;;;;;;;;;5029052;28;20120;-59
2023/09/02 07:47:26;;;;;;;1122.63;999.90;;;;;;;;;;5028551;28;20129;-60
2023/09/02 07:49:55;;;;;;;1107.78;999.90;;;;;;;;;;5029351;28;20057;-61
2023/09/02 07:52:24;;;;;;;1113.63;999.90;;;;;;;;;;5026501;28;20045;-60
2023/09/02 07:54:50;;;;;;;1083.60;986.20;;;;;;;;;;5029203;28;20073;-60
2023/09/02 07:57:17;;;;;;;1084.15;987.42;;;;;;;;;;5029204;28;20704;-59
2023/09/02 07:59:44;;;;;;;1075.22;980.47;;;;;;;;;;5030177;28;20041;-59
2023/09/02 08:02:10;;;;;;;1063.13;969.78;;;;;;;;;;5026682;28;20152;-59
2023/09/02 08:04:37;;;;;;;1067.22;972.75;;;;;;;;;;5030512;28;20479;-60
2023/09/02 08:07:03;;;;;;;1062.15;968.30;;;;;;;;;;5031410;28;20136;-59
2023/09/02 08:09:30;;;;;;;1045.38;953.40;;;;;;;;;;5030292;28;20055;-59
2023/09/02 08:11:56;;;;;;;1043.15;949.85;;;;;;;;;;5030366;28;20091;-60
2023/09/02 08:14:23;;;;;;;1041.68;948.38;;;;;;;;;;5030359;28;20038;-60
2023/09/02 08:16:49;;;;;;;1035.88;943.30;;;;;;;;;;5029659;28;20498;-60
2023/09/02 08:19:16;;;;;;;1036.78;942.75;;;;;;;;;;5030451;28;20053;-61
2023/09/02 08:21:43;;;;;;;1028.85;935.90;;;;;;;;;;5030258;28;20050;-61
2023/09/02 08:24:09;;;;;;;1026.45;933.85;;;;;;;;;;5026588;28;20061;-60
2023/09/02 08:26:36;;;;;;;1008.90;918.72;;;;;;;;;;5030333;28;20379;-59
2023/09/02 08:29:02;;;;;;;1020.97;927.28;;;;;;;;;;5029765;28;20038;-60
2023/09/02 08:31:29;;;;;;;1029.50;930.30;;;;;;;;;;5029629;28;20656;-60
2023/09/02 08:33:55;;;;;;;1008.80;918.38;;;;;;;;;;5030875;28;20048;-60
2023/09/02 08:36:22;;;;;;;1010.08;920.20;;;;;;;;;;5031225;28;20045;-60
2023/09/02 08:38:51;;;;;;;1005.38;914.80;;;;;;;;;;5030642;28;20603;-59
2023/09/02 08:41:29;;;;;;;1000.00;909.42;;;;;;;;;;5029432;28;20037;-59
2023/09/02 08:43:59;;;;;;;1005.13;912.38;;;;;;;;;;5029818;28;20057;-59
2023/09/02 08:46:29;;;;;;;1000.80;908.80;;;;;;;;;;5029499;28;20605;-60
2023/09/02 08:48:56;;;;;;;1001.40;910.95;;;;;;;;;;5030032;28;20391;-60
2023/09/02 08:51:23;;;;;;;1010.80;916.90;;;;;;;;;;5029477;28;20045;-59
2023/09/02 08:53:50;;;;;;;992.13;902.97;;;;;;;;;;5029348;28;20065;-60
2023/09/02 08:56:17;;;;;;;998.85;908.55;;;;;;;;;;5029379;28;20073;-59
2023/09/02 08:58:43;;;;;;;1011.13;919.00;;;;;;;;;;5029334;28;20088;-60
2023/09/02 09:01:13;;;;;;;1016.03;922.33;;;;;;;;;;5026765;28;20046;-60
2023/09/02 09:03:40;;;;;;;1005.42;915.50;;;;;;;;;;5029179;28;20960;-59
2023/09/02 09:06:09;;;;;;;1007.95;917.13;;;;;;;;;;5029214;28;20556;-59
2023/09/02 09:08:36;;;;;;;1006.78;917.05;;;;;;;;;;5004485;28;20076;-60
2023/09/02 09:11:04;;;;;;;1004.47;914.55;;;;;;;;;;5029279;28;20099;-60
2023/09/02 09:13:31;;;;;;;1021.50;926.08;;;;;;;;;;5029622;28;20042;-60
2023/09/02 09:15:58;;;;;;;1010.35;920.40;;;;;;;;;;5029799;28;20600;-60
2023/09/02 09:18:24;;;;;;;1015.17;924.00;;;;;;;;;;5028924;28;20040;-60
2023/09/02 09:20:51;;;;;;;1008.97;918.65;;;;;;;;;;5028868;28;20121;-60
2023/09/02 09:23:18;;;;;;;1014.60;923.55;;;;;;;;;;5028902;28;20072;-59
2023/09/02 09:25:49;;;;;;;1017.13;926.08;;;;;;;;;;5028822;28;20647;-60
2023/09/02 09:28:15;;;;;;;1025.28;933.60;;;;;;;;;;5022378;28;20049;-60
2023/09/02 09:30:42;;;;;;;1013.67;924.03;;;;;;;;;;5028870;28;20057;-60
2023/09/02 09:33:09;;;;;;;1021.78;929.65;;;;;;;;;;5028203;28;20127;-61
2023/09/02 09:35:35;;;;;;;1016.55;926.25;;;;;;;;;;5028730;28;20096;-60
2023/09/02 09:38:02;;;;;;;1030.28;937.53;;;;;;;;;;5028844;28;20049;-60
2023/09/02 09:40:32;;;;;;;1030.07;934.63;;;;;;;;;;5024803;28;20511;-60
2023/09/02 09:43:00;;;;;;;1022.85;931.28;;;;;;;;;;5028443;28;20487;-60
2023/09/02 09:45:27;;;;;;;1016.05;925.47;;;;;;;;;;5028757;28;20045;-60
2023/09/02 09:47:58;;;;;;;1024.75;933.47;;;;;;;;;;5028390;28;20560;-61
2023/09/02 09:50:26;;;;;;;1020.40;928.65;;;;;;;;;;5028316;28;20131;-60
2023/09/02 09:52:59;;;;;;;1022.80;932.03;;;;;;;;;;5028364;28;20056;-60
2023/09/02 09:55:26;;;;;;;1028.20;932.95;;;;;;;;;;5028628;28;20056;-60
2023/09/02 09:57:54;;;;;;;1017.03;926.55;;;;;;;;;;5029069;28;20132;-61
2023/09/02 10:00:21;;;;;;;1026.32;934.67;;;;;;;;;;5027947;28;20045;-59
2023/09/02 10:02:51;;;;;;;1026.35;934.10;;;;;;;;;;5024365;28;20056;-60
2023/09/02 10:05:31;;;;;;;1017.33;925.85;;;;;;;;;;5028493;28;20076;-59
2023/09/02 10:08:05;;;;;;;1017.67;924.35;;;;;;;;;;5028414;28;20038;-60
2023/09/02 10:10:35;;;;;;;1020.15;925.65;;;;;;;;;;5028215;28;20458;-60
2023/09/02 10:13:02;;;;;;;1022.83;931.78;;;;;;;;;;5029292;28;20133;-60
2023/09/02 10:15:30;;;;;;;1026.90;934.22;;;;;;;;;;5010790;28;20038;-60
2023/09/02 10:18:01;;;;;;;1028.28;937.63;;;;;;;;;;5027588;28;20049;-59
2023/09/02 10:20:29;;;;;;;1027.28;935.85;;;;;;;;;;5028324;28;20042;-61
2023/09/02 10:23:13;;;;;;;1041.95;948.22;;;;;;;;;;5028330;28;20383;-61
2023/09/02 10:25:54;;;;;;;1032.45;940.15;;;;;;;;;;5028477;28;20037;-61
2023/09/02 10:28:22;;;;;;;1036.55;941.10;;;;;;;;;;5011351;28;20140;-59
2023/09/02 10:30:51;;;;;;;1043.15;950.53;;;;;;;;;;5028692;28;20499;-60
2023/09/02 10:33:27;;;;;;;1033.35;941.80;;;;;;;;;;5027370;28;20639;-60
2023/09/02 10:36:00;;;;;;;1035.13;945.10;;;;;;;;;;5028326;28;20042;-61
2023/09/02 10:38:28;;;;;;;1042.70;949.88;;;;;;;;;;5029147;28;20041;-60
2023/09/02 10:41:04;;;;;;;1041.75;949.15;;;;;;;;;;5025761;28;20561;-61
2023/09/02 10:43:31;;;;;;;1046.13;952.38;;;;;;;;;;5026688;28;20038;-60
2023/09/02 10:45:59;;;;;;;1043.55;950.67;;;;;;;;;;5030099;28;20490;-60
2023/09/02 10:48:25;;;;;;;1036.32;944.17;;;;;;;;;;5028775;28;20036;-61
2023/09/02 10:50:52;;;;;;;1032.63;939.17;;;;;;;;;;5028332;28;20045;-60
2023/09/02 10:53:19;;;;;;;1046.72;953.25;;;;;;;;;;5028188;28;20137;-61
2023/09/02 10:55:59;;;;;;;1042.00;950.28;;;;;;;;;;5028344;28;20053;-60
2023/09/02 10:58:26;;;;;;;1041.88;945.92;;;;;;;;;;5025129;28;20672;-60
2023/09/02 11:00:52;;;;;;;1033.97;943.95;;;;;;;;;;5028810;28;20041;-60
2023/09/02 11:03:38;;;;;;;1043.38;949.95;;;;;;;;;;5009517;28;20058;-60
2023/09/02 11:06:06;;;;;;;1032.70;941.95;;;;;;;;;;5025846;28;20120;-60
2023/09/02 11:08:39;;;;;;;1025.82;935.33;;;;;;;;;;5027858;28;20042;-60
2023/09/02 11:11:06;;;;;;;1041.85;947.80;;;;;;;;;;5024422;28;20506;-60
2023/09/02 11:13:32;;;;;;;1048.10;955.28;;;;;;;;;;5031345;28;20084;-60
2023/09/02 11:16:11;;;;;;;1054.05;960.97;;;;;;;;;;5030935;28;20049;-62
2023/09/02 11:18:39;;;;;;;1048.20;954.03;;;;;;;;;;5030680;28;20103;-60
2023/09/02 11:21:06;;;;;;;1053.05;961.17;;;;;;;;;;5031373;28;20037;-60
2023/09/02 11:23:35;;;;;;;1055.63;961.75;;;;;;;;;;5031351;28;20503;-61
2023/09/02 11:26:05;;;;;;;1042.57;950.53;;;;;;;;;;5028145;28;20037;-60
2023/09/02 11:28:32;;;;;;;1055.57;958.67;;;;;;;;;;5032097;28;20045;-62
2023/09/02 11:31:04;;;;;;;1040.43;947.38;;;;;;;;;;5031687;28;20038;-61
2023/09/02 11:33:33;;;;;;;1032.03;941.28;;;;;;;;;;5029379;28;20034;-59
2023/09/02 11:36:03;;;;;;;1038.93;947.22;;;;;;;;;;5030915;28;20030;-60
2023/09/02 11:38:31;;;;;;;1038.20;946.17;;;;;;;;;;5030807;28;20037;-60
2023/09/02 11:40:57;;;;;;;1049.22;955.80;;;;;;;;;;5027687;28;20111;-59
2023/09/02 11:43:27;;;;;;;1051.95;957.03;;;;;;;;;;5030633;28;20414;-61
2023/09/02 11:45:54;;;;;;;1040.47;948.22;;;;;;;;;;5030836;28;20045;-60
2023/09/02 11:48:23;;;;;;;1054.18;961.88;;;;;;;;;;5030481;28;20527;-63
2023/09/02 11:50:49;;;;;;;1046.28;952.55;;;;;;;;;;5030748;28;20114;-59
2023/09/02 11:53:16;;;;;;;1057.45;962.13;;;;;;;;;;5030392;28;20095;-60
2023/09/02 11:55:43;;;;;;;1058.40;965.38;;;;;;;;;;5029442;28;20045;-60
2023/09/02 11:58:14;;;;;;;1049.47;954.33;;;;;;;;;;5031537;28;20045;-60
2023/09/02 12:00:42;;;;;;;1046.05;953.55;;;;;;;;;;5013063;28;20506;-60
2023/09/02 12:03:09;;;;;;;1042.22;950.13;;;;;;;;;;5030160;28;20120;-61
2023/09/02 12:05:37;;;;;;;1047.53;955.30;;;;;;;;;;5030627;28;20136;-59
2023/09/02 12:08:04;;;;;;;1043.32;950.25;;;;;;;;;;5026992;28;20530;-61
2023/09/02 12:10:31;;;;;;;1038.18;944.97;;;;;;;;;;5030435;28;20190;-60
2023/09/02 12:12:58;;;;;;;1032.60;940.40;;;;;;;;;;5031481;28;20087;-62
2023/09/02 12:15:24;;;;;;;1032.57;940.03;;;;;;;;;;5030422;28;20694;-61
2023/09/02 12:17:51;;;;;;;1028.25;937.97;;;;;;;;;;5030191;28;20126;-59
2023/09/02 12:20:18;;;;;;;1030.57;939.60;;;;;;;;;;5030232;28;20091;-60
2023/09/02 12:22:44;;;;;;;1043.43;949.47;;;;;;;;;;5029642;28;20053;-62
2023/09/02 12:25:21;;;;;;;1049.82;956.53;;;;;;;;;;5031216;28;20049;-61
2023/09/02 12:27:48;;;;;;;1047.68;955.88;;;;;;;;;;5030840;28;20049;-61
2023/09/02 12:30:28;;;;;;;1048.78;956.67;;;;;;;;;;5030370;28;20038;-61
2023/09/02 12:32:57;;;;;;;1044.50;952.28;;;;;;;;;;5007036;28;20045;-62
2023/09/02 12:35:24;;;;;;;1044.72;951.25;;;;;;;;;;5011965;28;20128;-64
2023/09/02 12:38:04;;;;;;;1047.20;954.92;;;;;;;;;;5030041;28;20037;-61
2023/09/02 12:40:32;;;;;;;1052.30;956.45;;;;;;;;;;5029207;28;20488;-62
2023/09/02 12:42:59;;;;;;;1056.43;964.30;;;;;;;;;;5030951;28;20546;-62
2023/09/02 12:45:46;;;;;;;1055.43;962.92;;;;;;;;;;5030117;28;20045;-62
2023/09/02 12:48:13;;;;;;;1065.95;974.17;;;;;;;;;;5029173;28;20050;-62
2023/09/02 12:50:39;;;;;;;1057.38;966.08;;;;;;;;;;5029814;28;20115;-62
2023/09/02 12:53:07;;;;;;;1066.55;970.80;;;;;;;;;;5029563;28;20076;-62
2023/09/02 12:55:39;;;;;;;1065.25;970.78;;;;;;;;;;5029611;28;20522;-61
2023/09/02 12:58:05;;;;;;;1051.00;960.23;;;;;;;;;;5030559;28;20079;-62
2023/09/02 13:00:32;;;;;;;1071.85;977.65;;;;;;;;;;5029563;28;20132;-62
2023/09/02 13:02:58;;;;;;;1062.07;969.13;;;;;;;;;;5028863;28;20046;-59
2023/09/02 13:05:25;;;;;;;1062.05;967.38;;;;;;;;;;5029765;28;20136;-61
2023/09/02 13:07:55;;;;;;;1062.45;969.08;;;;;;;;;;5029258;28;20045;-62
2023/09/02 13:10:23;;;;;;;1061.45;969.05;;;;;;;;;;5030007;28;20439;-63
2023/09/02 13:12:49;;;;;;;1068.57;975.83;;;;;;;;;;5029893;28;20787;-62
2023/09/02 13:15:16;;;;;;;1063.68;967.08;;;;;;;;;;5029096;28;20038;-61
2023/09/02 13:17:43;;;;;;;1058.07;965.60;;;;;;;;;;5029039;28;20069;-62
2023/09/02 13:20:12;;;;;;;1054.90;962.42;;;;;;;;;;5029383;28;20471;-61
2023/09/02 13:22:45;;;;;;;;;;;;;;;;;;5029492;28;20067;-63
2023/09/02 13:25:13;;;;;;;1058.82;965.63;;;;;;;;;;5029292;28;19975;-62
2023/09/02 13:27:40;;;;;;;1072.38;978.97;;;;;;;;;;5028914;28;20073;-61
2023/09/02 13:30:08;;;;;;;1058.80;966.08;;;;;;;;;;5029445;28;20119;-61
2023/09/02 13:32:35;;;;;;;1061.50;968.05;;;;;;;;;;5028718;28;20088;-59
2023/09/02 13:35:05;;;;;;;1059.72;967.03;;;;;;;;;;5028108;28;20430;-61
2023/09/02 13:37:31;;;;;;;1076.47;978.28;;;;;;;;;;5029173;28;20072;-62
2023/09/02 13:40:10;;;;;;;1057.93;962.50;;;;;;;;;;5027458;28;20049;-62
2023/09/02 13:42:36;;;;;;;1053.88;960.72;;;;;;;;;;5027415;28;20495;-61
2023/09/02 13:45:14;;;;;;;1049.72;958.92;;;;;;;;;;5029039;28;20050;-62
2023/09/02 13:47:45;;;;;;;1058.95;966.10;;;;;;;;;;5025314;28;20068;-62
2023/09/02 13:50:12;;;;;;;1051.88;959.47;;;;;;;;;;5029520;28;20072;-62
2023/09/02 13:52:39;;;;;;;1066.65;971.97;;;;;;;;;;5028906;28;20508;-59
2023/09/02 13:55:06;;;;;;;1050.82;958.30;;;;;;;;;;5027677;28;20517;-62